createdAt,value
2022-10-09T00:01:38.062Z,100582.22
2022-10-09T00:06:40.846Z,100583.06
2022-10-09T00:11:43.580Z,100591.66
2022-10-09T00:16:46.400Z,100589.44
2022-10-09T00:21:49.205Z,100589.09
2022-10-09T00:26:51.942Z,100584.06
2022-10-09T00:31:54.708Z,100572.09
2022-10-09T00:36:57.545Z,100567.47
2022-10-09T00:42:01.039Z,100562.31
2022-10-09T00:47:03.881Z,100563.28
2022-10-09T00:52:07.617Z,100554.47
2022-10-09T00:57:10.576Z,100553.81
2022-10-09T01:02:13.447Z,100543.53
2022-10-09T01:07:43.003Z,100543.00
2022-10-09T01:13:04.803Z,100542.78
2022-10-09T01:18:22.769Z,100542.78
2022-10-09T01:23:34.815Z,100541.78
2022-10-09T01:28:39.128Z,100530.53
2022-10-09T01:33:42.006Z,100537.06
2022-10-09T01:38:45.770Z,100524.31
2022-10-09T01:43:48.548Z,100529.66
2022-10-09T01:49:13.745Z,100520.38
2022-10-09T01:54:22.693Z,100524.53
2022-10-09T01:59:27.110Z,100525.06
2022-10-09T02:04:30.984Z,100535.03
2022-10-09T02:09:34.890Z,100537.69
2022-10-09T02:14:37.852Z,100545.59
2022-10-09T02:20:05.136Z,100549.25
2022-10-09T02:25:08.233Z,100549.63
2022-10-09T02:30:11.402Z,100553.00
2022-10-09T02:35:14.307Z,100555.84
2022-10-09T02:40:17.067Z,100561.50
2022-10-09T02:45:19.883Z,100561.34
2022-10-09T02:50:36.975Z,100559.38
2022-10-09T02:55:53.411Z,100576.47
2022-10-09T03:00:56.224Z,100578.28
2022-10-09T03:06:09.362Z,100584.13
2022-10-09T03:11:14.182Z,100581.69
2022-10-09T03:16:22.398Z,100578.03
2022-10-09T03:21:27.075Z,100586.41
2022-10-09T03:26:30.426Z,100588.66
2022-10-09T03:31:51.226Z,100597.53
2022-10-09T03:36:54.876Z,100587.91
2022-10-09T03:41:57.962Z,100591.66
2022-10-09T03:47:00.840Z,100606.34
2022-10-09T03:52:03.625Z,100612.84
2022-10-09T03:57:06.433Z,100604.06
2022-10-09T04:02:09.330Z,100597.03
2022-10-09T04:07:12.220Z,100595.03
2022-10-09T04:12:15.255Z,100586.16
2022-10-09T04:17:18.339Z,100602.97
2022-10-09T04:22:22.190Z,100604.94
2022-10-09T04:27:25.287Z,100594.19
2022-10-09T04:32:28.252Z,100590.22
2022-10-09T04:37:31.384Z,100592.06
2022-10-09T04:42:34.391Z,100622.13
2022-10-09T04:47:38.100Z,100626.22
2022-10-09T04:52:41.057Z,100655.41
2022-10-09T04:57:44.629Z,100648.06
2022-10-09T05:02:47.982Z,100654.25
2022-10-09T05:07:51.492Z,100649.25
2022-10-09T05:12:54.351Z,100655.59
2022-10-09T05:17:57.119Z,100669.00
2022-10-09T05:22:59.892Z,100661.31
2022-10-09T05:28:04.849Z,100669.84
2022-10-09T05:33:07.644Z,100675.81
2022-10-09T05:38:10.462Z,100681.47
2022-10-09T05:43:13.175Z,100689.94
2022-10-09T05:48:15.874Z,100688.97
2022-10-09T05:53:19.682Z,100693.09
2022-10-09T05:58:22.504Z,100700.28
2022-10-09T06:03:25.477Z,100703.59
2022-10-09T06:08:28.651Z,100697.63
2022-10-09T06:13:31.393Z,100708.94
2022-10-09T06:18:34.310Z,100716.94
2022-10-09T06:23:37.024Z,100719.84
2022-10-09T06:28:40.515Z,100737.25
2022-10-09T06:33:44.919Z,100740.66
2022-10-09T06:38:48.329Z,100742.38
2022-10-09T06:43:59.346Z,100741.63
2022-10-09T06:49:02.927Z,100752.00
2022-10-09T06:54:11.664Z,100760.16
2022-10-09T06:59:14.433Z,100750.41
2022-10-09T07:04:18.324Z,100760.41
2022-10-09T07:09:21.184Z,100758.53
2022-10-09T07:14:24.069Z,100762.38
2022-10-09T07:19:26.913Z,100757.22
2022-10-09T07:24:29.749Z,100752.28
2022-10-09T07:29:33.201Z,100760.09
2022-10-09T07:34:35.935Z,100760.28
2022-10-09T07:39:41.641Z,100754.03
2022-10-09T07:44:47.639Z,100765.44
2022-10-09T07:49:50.414Z,100769.03
2022-10-09T07:54:53.021Z,100767.59
2022-10-09T07:59:55.767Z,100760.03
2022-10-09T08:04:58.497Z,100773.16
2022-10-09T08:10:01.358Z,100773.22
2022-10-09T08:15:04.525Z,100785.44
2022-10-09T08:20:07.867Z,100781.13
2022-10-09T08:25:10.593Z,100790.50
2022-10-09T08:30:13.400Z,100784.72
2022-10-09T08:35:16.268Z,100787.88
2022-10-09T08:40:21.586Z,100797.03
2022-10-09T08:45:24.664Z,100791.06
2022-10-09T08:50:34.441Z,100797.94
2022-10-09T08:55:44.019Z,100801.91
2022-10-09T09:00:55.158Z,100805.00
2022-10-09T09:06:07.010Z,100804.03
2022-10-09T09:11:34.559Z,100816.22
2022-10-09T09:16:52.104Z,100818.13
2022-10-09T09:21:55.026Z,100821.66
2022-10-09T09:27:02.713Z,100818.34
2022-10-09T09:32:13.564Z,100826.59
2022-10-09T09:37:17.155Z,100833.66
2022-10-09T09:42:20.887Z,100835.06
2022-10-09T09:47:34.242Z,100830.56
2022-10-09T09:52:43.172Z,100840.66
2022-10-09T09:57:46.216Z,100841.97
2022-10-09T10:02:50.145Z,100839.06
2022-10-09T10:07:53.743Z,100836.16
2022-10-09T10:12:58.745Z,100841.34
2022-10-09T10:18:07.667Z,100839.84
2022-10-09T10:23:34.892Z,100836.31
2022-10-09T10:29:00.459Z,100834.88
2022-10-09T10:34:05.539Z,100841.06
2022-10-09T10:39:18.357Z,100838.09
2022-10-09T10:44:50.373Z,100828.06
2022-10-09T10:49:53.358Z,100822.31
2022-10-09T10:55:22.247Z,100826.22
2022-10-09T11:00:26.486Z,100823.09
2022-10-09T11:05:53.797Z,100822.50
2022-10-09T11:11:21.342Z,100817.53
2022-10-09T11:16:27.364Z,100820.59
2022-10-09T11:21:45.140Z,100809.16
2022-10-09T11:27:16.303Z,100798.03
2022-10-09T11:32:27.114Z,100807.00
2022-10-09T11:37:35.187Z,100799.56
2022-10-09T11:42:37.931Z,100787.59
2022-10-09T11:48:03.932Z,100784.81
2022-10-09T11:53:27.825Z,100784.41
2022-10-09T11:58:30.640Z,100788.72
2022-10-09T12:03:37.967Z,100781.81
2022-10-09T12:08:55.161Z,100780.09
2022-10-09T12:14:03.455Z,100779.56
2022-10-09T12:19:18.415Z,100773.38
2022-10-09T12:24:25.622Z,100788.44
2022-10-09T12:29:49.614Z,100784.47
2022-10-09T12:34:53.142Z,100780.63
2022-10-09T12:40:08.983Z,100785.56
2022-10-09T12:45:31.047Z,100781.31
2022-10-09T12:50:34.835Z,100767.91
2022-10-09T12:55:43.384Z,100762.22
2022-10-09T13:00:52.315Z,100759.59
2022-10-09T13:05:56.957Z,100760.28
2022-10-09T13:11:10.713Z,100756.19
2022-10-09T13:16:13.380Z,100747.28
2022-10-09T13:21:16.243Z,100750.59
2022-10-09T13:26:28.140Z,100753.56
2022-10-09T13:31:32.807Z,100751.72
2022-10-09T13:36:36.197Z,100754.00
2022-10-09T13:41:39.124Z,100748.00
2022-10-09T13:46:41.732Z,100734.53
2022-10-09T13:51:44.511Z,100733.53
2022-10-09T13:56:47.289Z,100741.44
2022-10-09T14:01:51.089Z,100747.25
2022-10-09T14:06:53.973Z,100734.63
2022-10-09T14:11:57.009Z,100740.03
2022-10-09T14:16:59.877Z,100741.72
2022-10-09T14:22:02.583Z,100744.63
2022-10-09T14:27:05.575Z,100744.63
2022-10-09T14:32:09.041Z,100737.75
2022-10-09T14:37:23.894Z,100732.81
2022-10-09T14:42:36.288Z,100736.53
2022-10-09T14:47:39.096Z,100744.19
2022-10-09T14:52:42.307Z,100742.34
2022-10-09T14:57:45.075Z,100739.44
2022-10-09T15:02:47.904Z,100742.13
2022-10-09T15:07:50.934Z,100739.81
2022-10-09T15:12:53.839Z,100752.03
2022-10-09T15:17:57.053Z,100746.84
2022-10-09T15:22:59.868Z,100761.69
2022-10-09T15:28:02.671Z,100761.53
2022-10-09T15:33:05.468Z,100761.66
2022-10-09T15:38:14.123Z,100775.22
2022-10-09T15:43:19.246Z,100774.94
2022-10-09T15:48:24.801Z,100774.69
2022-10-09T15:53:27.637Z,100771.25
2022-10-09T15:58:30.516Z,100772.19
2022-10-09T16:03:36.495Z,100768.53
2022-10-09T16:08:40.633Z,100779.16
2022-10-09T16:13:45.978Z,100786.25
2022-10-09T16:18:48.805Z,100803.31
2022-10-09T16:23:57.409Z,100812.66
2022-10-09T16:29:01.510Z,100814.19
2022-10-09T16:34:06.719Z,100825.59
2022-10-09T16:39:09.525Z,100837.13
2022-10-09T16:44:17.056Z,100845.56
2022-10-09T16:49:22.872Z,100848.94
2022-10-09T16:54:27.849Z,100849.84
2022-10-09T16:59:30.810Z,100856.25
2022-10-09T17:04:33.654Z,100867.44
2022-10-09T17:09:37.523Z,100865.91
2022-10-09T17:14:40.832Z,100869.31
2022-10-09T17:19:43.980Z,100879.38
2022-10-09T17:24:46.943Z,100887.16
2022-10-09T17:29:50.282Z,100887.34
2022-10-09T17:34:53.112Z,100886.56
2022-10-09T17:39:56.420Z,100891.59
2022-10-09T17:44:59.334Z,100899.13
2022-10-09T17:50:02.720Z,100901.13
2022-10-09T17:55:08.330Z,100903.81
2022-10-09T18:00:11.895Z,100908.13
2022-10-09T18:05:15.192Z,100909.81
2022-10-09T18:10:17.925Z,100908.28
2022-10-09T18:15:20.757Z,100906.94
2022-10-09T18:20:23.489Z,100913.75
2022-10-09T18:25:26.077Z,100914.78
2022-10-09T18:30:29.440Z,100927.81
2022-10-09T18:35:35.375Z,100920.03
2022-10-09T18:40:45.234Z,100928.72
2022-10-09T18:45:48.533Z,100933.19
2022-10-09T18:50:51.369Z,100930.25
2022-10-09T18:55:54.270Z,100938.56
2022-10-09T19:00:57.108Z,100946.25
2022-10-09T19:05:59.988Z,100944.09
2022-10-09T19:11:02.814Z,100947.44
2022-10-09T19:16:06.253Z,100954.97
2022-10-09T19:21:12.934Z,100961.34
2022-10-09T19:26:16.557Z,100966.63
2022-10-09T19:31:19.840Z,100977.31
2022-10-09T19:36:22.665Z,100986.28
2022-10-09T19:41:26.023Z,100991.44
2022-10-09T19:46:28.752Z,100994.59
2022-10-09T19:51:33.550Z,101009.25
2022-10-09T19:56:36.937Z,101006.75
2022-10-09T20:01:40.450Z,101020.78
2022-10-09T20:06:43.731Z,101017.25
2022-10-09T20:11:47.408Z,101017.44
2022-10-09T20:16:50.298Z,101025.06
2022-10-09T20:21:53.133Z,101021.72
2022-10-09T20:26:55.935Z,101017.81
2022-10-09T20:31:58.747Z,101032.75
2022-10-09T20:37:01.353Z,101035.34
2022-10-09T20:42:04.298Z,101043.38
2022-10-09T20:47:07.633Z,101044.44
2022-10-09T20:52:11.868Z,101044.97
2022-10-09T20:57:14.731Z,101047.16
2022-10-09T21:02:17.536Z,101052.19
2022-10-09T21:07:20.331Z,101054.53
2022-10-09T21:12:23.130Z,101058.72
2022-10-09T21:17:25.839Z,101056.28
2022-10-09T21:22:29.052Z,101055.66
2022-10-09T21:27:31.880Z,101054.84
2022-10-09T21:32:34.740Z,101060.50
2022-10-09T21:37:37.818Z,101059.03
2022-10-09T21:42:41.020Z,101062.72
2022-10-09T21:47:43.759Z,101059.69
2022-10-09T21:52:48.442Z,101069.06
2022-10-09T21:57:51.904Z,101070.03
2022-10-09T22:02:55.172Z,101054.22
2022-10-09T22:07:58.033Z,101053.41
2022-10-09T22:13:00.901Z,101054.38
2022-10-09T22:18:03.615Z,101053.25
2022-10-09T22:23:06.417Z,101064.72
2022-10-09T22:28:09.228Z,101059.97
2022-10-09T22:33:12.035Z,101055.22
2022-10-09T22:38:14.808Z,101059.56
2022-10-09T22:43:17.573Z,101058.91
2022-10-09T22:48:20.350Z,101072.06
2022-10-09T22:53:23.070Z,101059.94
2022-10-09T22:58:26.303Z,101073.63
2022-10-09T23:03:29.173Z,101069.72
2022-10-09T23:08:31.950Z,101075.16
2022-10-09T23:13:35.340Z,101075.97
2022-10-09T23:18:38.909Z,101086.28
2022-10-09T23:23:42.880Z,101090.63
2022-10-09T23:28:50.744Z,101094.06
2022-10-09T23:33:54.862Z,101095.75
2022-10-09T23:38:58.826Z,101087.75
2022-10-09T23:44:02.372Z,101080.09
2022-10-09T23:49:05.202Z,101084.28
2022-10-09T23:54:07.986Z,101093.34
2022-10-09T23:59:11.315Z,101091.47
